createdAt,value
2019-04-26T00:00:43.624Z,3.45
2019-04-26T00:03:14.197Z,3.92
2019-04-26T00:05:42.618Z,3.05
2019-04-26T00:08:11.840Z,2.83
2019-04-26T00:10:41.914Z,2.77
2019-04-26T00:13:28.443Z,3.60
2019-04-26T00:16:07.887Z,3.62
2019-04-26T00:18:39.414Z,3.42
2019-04-26T00:21:08.090Z,3.45
2019-04-26T00:23:36.525Z,4.42
2019-04-26T00:26:05.436Z,2.60
2019-04-26T00:28:34.181Z,3.05
2019-04-26T00:31:02.965Z,3.37
2019-04-26T00:33:32.634Z,4.62
2019-04-26T00:36:01.356Z,4.10
2019-04-26T00:38:30.140Z,3.00
2019-04-26T00:41:00.670Z,6.12
2019-04-26T00:43:29.147Z,5.95
2019-04-26T00:45:58.042Z,4.25
2019-04-26T00:48:26.442Z,5.20
2019-04-26T00:50:54.884Z,5.30
2019-04-26T00:53:25.529Z,6.03
2019-04-26T00:55:53.971Z,6.47
2019-04-26T00:58:22.644Z,5.67
2019-04-26T01:00:51.150Z,5.33
2019-04-26T01:03:20.617Z,6.45
2019-04-26T01:05:59.509Z,5.40
2019-04-26T01:08:19.280Z,7.83
2019-04-26T01:10:47.750Z,5.72
2019-04-26T01:13:17.745Z,7.10
2019-04-26T01:15:46.680Z,7.03
2019-04-26T01:18:16.756Z,8.10
2019-04-26T01:20:45.372Z,11.88
2019-04-26T01:23:14.100Z,9.45
2019-04-26T01:25:47.495Z,10.25
2019-04-26T01:28:25.837Z,9.65
2019-04-26T01:30:55.254Z,10.20
2019-04-26T01:33:24.084Z,9.30
2019-04-26T01:35:52.655Z,12.35
2019-04-26T01:38:21.787Z,11.08
2019-04-26T01:40:52.003Z,11.95
2019-04-26T01:43:38.156Z,13.32
2019-04-26T01:46:11.192Z,12.68
2019-04-26T01:48:59.693Z,16.35
2019-04-26T01:51:37.669Z,19.25
2019-04-26T01:54:06.500Z,16.32
2019-04-26T01:56:37.192Z,17.87
2019-04-26T01:59:05.972Z,16.93
2019-04-26T02:01:52.258Z,19.73
2019-04-26T02:04:22.467Z,19.75
2019-04-26T02:06:51.010Z,15.28
2019-04-26T02:09:19.464Z,20.97
2019-04-26T02:11:48.259Z,18.05
2019-04-26T02:14:16.889Z,19.65
2019-04-26T02:16:45.289Z,19.42
2019-04-26T02:19:13.742Z,18.87
2019-04-26T02:21:43.858Z,19.35
2019-04-26T02:24:13.945Z,18.70
2019-04-26T02:26:46.550Z,18.62
2019-04-26T02:29:18.211Z,17.27
2019-04-26T02:31:48.367Z,18.85
2019-04-26T02:34:17.198Z,19.35
2019-04-26T02:36:57.027Z,19.67
2019-04-26T02:39:21.414Z,20.23
2019-04-26T02:41:52.182Z,21.52
2019-04-26T02:44:22.157Z,23.83
2019-04-26T02:47:04.774Z,18.82
2019-04-26T02:49:36.632Z,19.02
2019-04-26T02:52:17.141Z,19.65
2019-04-26T02:54:54.630Z,20.12
2019-04-26T02:57:29.793Z,19.48
2019-04-26T03:00:02.494Z,21.27
2019-04-26T03:02:36.109Z,20.50
2019-04-26T03:05:04.587Z,25.32
2019-04-26T03:07:53.395Z,20.82
2019-04-26T03:10:24.991Z,24.43
2019-04-26T03:12:53.836Z,21.25
2019-04-26T03:15:28.348Z,20.48
2019-04-26T03:18:19.485Z,19.32
2019-04-26T03:20:51.524Z,22.48
2019-04-26T03:23:45.665Z,19.65
2019-04-26T03:26:08.591Z,19.90
2019-04-26T03:28:49.046Z,22.15
2019-04-26T03:31:52.461Z,20.40
2019-04-26T03:34:29.405Z,19.48
2019-04-26T03:37:20.376Z,21.20
2019-04-26T03:40:01.303Z,23.98
2019-04-26T03:42:35.180Z,18.52
2019-04-26T03:45:21.362Z,17.57
2019-04-26T03:48:19.639Z,20.08
2019-04-26T03:50:57.138Z,20.50
2019-04-26T03:53:48.231Z,17.37
2019-04-26T03:56:21.805Z,19.05
2019-04-26T03:59:00.709Z,21.95
2019-04-26T04:01:31.256Z,28.42
2019-04-26T04:04:01.475Z,26.40
2019-04-26T04:06:31.561Z,22.87
2019-04-26T04:09:11.179Z,23.30
2019-04-26T04:11:47.323Z,25.82
2019-04-26T04:14:19.318Z,28.70
2019-04-26T04:17:02.145Z,26.85
2019-04-26T04:19:56.390Z,29.05
2019-04-26T04:22:25.111Z,31.25
2019-04-26T04:25:02.300Z,29.67
2019-04-26T04:27:34.082Z,31.52
2019-04-26T04:30:05.944Z,28.87
2019-04-26T04:33:00.647Z,32.43
2019-04-26T04:35:29.393Z,29.40
2019-04-26T04:38:10.073Z,33.95
2019-04-26T04:41:13.171Z,30.65
2019-04-26T04:43:53.199Z,31.02
2019-04-26T04:46:29.664Z,33.25
2019-04-26T04:49:12.005Z,35.05
2019-04-26T04:52:11.136Z,32.15
2019-04-26T04:55:07.039Z,30.57
2019-04-26T04:57:34.178Z,36.20
2019-04-26T05:00:28.475Z,30.32
2019-04-26T05:03:16.726Z,36.25
2019-04-26T05:06:17.547Z,32.67
2019-04-26T05:09:07.019Z,32.13
2019-04-26T05:11:48.006Z,38.90
2019-04-26T05:14:36.398Z,33.35
2019-04-26T05:17:37.048Z,32.17
2019-04-26T05:20:14.625Z,32.58
2019-04-26T05:23:00.813Z,32.60
2019-04-26T05:25:59.597Z,31.37
2019-04-26T05:28:46.176Z,32.93
2019-04-26T05:31:34.365Z,29.63
2019-04-26T05:34:12.931Z,28.67
2019-04-26T05:37:10.538Z,28.40
2019-04-26T05:39:49.130Z,30.95
2019-04-26T05:42:31.282Z,30.50
2019-04-26T05:45:07.621Z,32.40
2019-04-26T05:47:50.474Z,30.50
2019-04-26T05:50:56.514Z,31.37
2019-04-26T05:53:52.866Z,28.73
2019-04-26T05:56:40.853Z,26.60
2019-04-26T05:59:27.794Z,29.40
2019-04-26T06:02:26.798Z,25.80
2019-04-26T06:05:18.336Z,28.30
2019-04-26T06:08:00.523Z,24.47
2019-04-26T06:10:33.058Z,37.33
2019-04-26T06:13:21.201Z,31.62
2019-04-26T06:16:11.725Z,30.75
2019-04-26T06:19:09.124Z,27.55
2019-04-26T06:21:43.858Z,30.23
2019-04-26T06:24:30.624Z,29.87
2019-04-26T06:27:27.839Z,32.17
2019-04-26T06:30:03.338Z,31.45
2019-04-26T06:32:56.200Z,28.02
2019-04-26T06:35:24.500Z,32.63
2019-04-26T06:38:43.694Z,33.25
2019-04-26T06:41:39.566Z,25.95
2019-04-26T06:44:27.934Z,31.15
2019-04-26T06:47:28.925Z,27.95
2019-04-26T06:50:11.143Z,28.12
2019-04-26T06:52:51.532Z,28.67
2019-04-26T06:55:31.096Z,26.50
2019-04-26T06:58:23.887Z,22.13
2019-04-26T07:01:20.711Z,20.15
2019-04-26T07:04:07.851Z,20.17
2019-04-26T07:06:59.912Z,19.75
2019-04-26T07:09:50.475Z,27.15
2019-04-26T07:12:25.931Z,23.18
2019-04-26T07:14:57.703Z,23.67
2019-04-26T07:17:38.454Z,27.25
2019-04-26T07:20:16.254Z,25.02
2019-04-26T07:23:30.536Z,27.48
2019-04-26T07:26:04.211Z,25.80
2019-04-26T07:28:38.577Z,25.08
2019-04-26T07:31:10.390Z,28.62
2019-04-26T07:33:58.547Z,30.52
2019-04-26T07:36:47.471Z,26.77
2019-04-26T07:39:36.057Z,31.30
2019-04-26T07:42:38.199Z,26.40
2019-04-26T07:45:35.260Z,28.62
2019-04-26T07:48:41.436Z,25.25
2019-04-26T07:51:19.090Z,26.75
2019-04-26T07:54:19.290Z,26.15
2019-04-26T07:56:54.258Z,28.23
2019-04-26T07:59:38.047Z,27.25
2019-04-26T08:02:29.538Z,22.85
2019-04-26T08:05:09.973Z,21.30
2019-04-26T08:07:41.367Z,22.00
2019-04-26T08:10:15.176Z,21.55
2019-04-26T08:12:43.914Z,22.98
2019-04-26T08:15:24.859Z,23.42
2019-04-26T08:17:55.289Z,22.50
2019-04-26T08:20:48.230Z,21.52
2019-04-26T08:23:39.249Z,24.25
2019-04-26T08:25:51.914Z,24.10
2019-04-26T08:28:20.723Z,20.37
2019-04-26T08:30:50.317Z,22.22
2019-04-26T08:33:23.971Z,21.17
2019-04-26T08:35:53.549Z,20.37
2019-04-26T08:38:23.015Z,22.62
2019-04-26T08:40:51.786Z,21.90
2019-04-26T08:43:38.450Z,23.02
2019-04-26T08:46:24.613Z,23.47
2019-04-26T08:49:06.891Z,22.15
2019-04-26T08:51:35.410Z,22.48
2019-04-26T08:54:05.801Z,23.15
2019-04-26T08:56:37.982Z,24.50
2019-04-26T08:59:18.286Z,23.25
2019-04-26T09:02:04.742Z,26.93
2019-04-26T09:04:37.960Z,21.42
2019-04-26T09:07:08.327Z,21.95
2019-04-26T09:09:36.783Z,23.42
2019-04-26T09:12:22.505Z,22.30
2019-04-26T09:14:46.767Z,29.00
2019-04-26T09:17:15.237Z,31.93
2019-04-26T09:19:43.996Z,28.30
2019-04-26T09:22:14.084Z,26.42
2019-04-26T09:24:50.178Z,24.92
2019-04-26T09:27:29.917Z,27.02
2019-04-26T09:30:06.473Z,24.45
2019-04-26T09:32:36.695Z,23.80
2019-04-26T09:35:06.802Z,26.37
2019-04-26T09:37:35.233Z,29.10
2019-04-26T09:40:10.394Z,25.12
2019-04-26T09:42:43.180Z,26.40
2019-04-26T09:45:29.811Z,25.52
2019-04-26T09:48:08.984Z,27.17
2019-04-26T09:50:39.050Z,22.32
2019-04-26T09:53:08.708Z,26.85
2019-04-26T09:55:37.147Z,28.27
2019-04-26T09:58:08.434Z,25.52
2019-04-26T10:00:35.815Z,29.10
2019-04-26T10:03:05.448Z,25.82
2019-04-26T10:05:35.053Z,20.10
2019-04-26T10:08:03.466Z,22.70
2019-04-26T10:10:35.214Z,20.97
2019-04-26T10:13:15.201Z,19.55
2019-04-26T10:15:45.280Z,20.68
2019-04-26T10:18:15.390Z,20.23
2019-04-26T10:20:43.856Z,21.65
2019-04-26T10:23:14.978Z,17.60
2019-04-26T10:25:47.272Z,18.82
2019-04-26T10:28:15.890Z,18.12
2019-04-26T10:30:44.134Z,19.62
2019-04-26T10:33:13.099Z,17.42
2019-04-26T10:35:41.576Z,13.93
2019-04-26T10:38:10.425Z,14.45
2019-04-26T10:40:38.883Z,15.05
2019-04-26T10:43:09.125Z,16.48
2019-04-26T10:45:37.752Z,17.45
2019-04-26T10:48:09.558Z,18.17
2019-04-26T10:50:36.802Z,16.25
2019-04-26T10:53:13.192Z,17.27
2019-04-26T10:55:46.457Z,17.92
2019-04-26T10:58:32.045Z,16.82
2019-04-26T11:01:02.847Z,15.68
2019-04-26T11:03:31.293Z,14.53
2019-04-26T11:06:00.047Z,15.93
2019-04-26T11:08:30.086Z,16.73
2019-04-26T11:10:59.035Z,13.22
2019-04-26T11:13:27.446Z,16.37
2019-04-26T11:15:56.265Z,12.73
2019-04-26T11:18:27.799Z,14.20
2019-04-26T11:20:54.858Z,14.95
2019-04-26T11:23:23.401Z,14.90
2019-04-26T11:25:52.212Z,14.95
2019-04-26T11:28:22.975Z,12.40
2019-04-26T11:30:52.406Z,14.25
2019-04-26T11:33:21.935Z,12.55
2019-04-26T11:35:50.463Z,14.33
2019-04-26T11:38:21.677Z,13.32
2019-04-26T11:41:05.115Z,15.05
2019-04-26T11:43:21.119Z,13.75
2019-04-26T11:46:04.851Z,10.80
2019-04-26T11:48:33.895Z,13.22
2019-04-26T11:51:02.303Z,12.35
2019-04-26T11:53:33.304Z,10.43
2019-04-26T11:56:04.516Z,10.45
2019-04-26T11:58:31.595Z,11.05
2019-04-26T12:01:03.958Z,11.80
2019-04-26T12:03:32.411Z,13.38
2019-04-26T12:06:02.501Z,12.75
2019-04-26T12:08:36.097Z,11.93
2019-04-26T12:11:17.555Z,11.90
2019-04-26T12:13:35.803Z,11.53
2019-04-26T12:16:04.523Z,16.12
2019-04-26T12:18:32.993Z,10.98
2019-04-26T12:21:02.178Z,10.32
2019-04-26T12:23:30.700Z,10.58
2019-04-26T12:25:59.153Z,11.00
2019-04-26T12:28:28.133Z,11.53
2019-04-26T12:30:58.473Z,10.20
2019-04-26T12:33:27.995Z,12.13
2019-04-26T12:35:57.359Z,13.70
2019-04-26T12:38:28.482Z,13.72
2019-04-26T12:40:56.464Z,10.32
2019-04-26T12:43:27.504Z,12.37
2019-04-26T12:45:57.872Z,11.57
2019-04-26T12:48:27.621Z,11.18
2019-04-26T12:50:56.075Z,10.98
2019-04-26T12:53:26.753Z,10.38
2019-04-26T12:55:58.307Z,11.70
2019-04-26T12:58:25.760Z,11.03
2019-04-26T13:00:54.701Z,11.25
2019-04-26T13:03:24.967Z,12.78
2019-04-26T13:05:57.652Z,10.70
2019-04-26T13:08:23.985Z,11.97
2019-04-26T13:10:55.067Z,10.05
2019-04-26T13:13:29.465Z,11.12
2019-04-26T13:16:02.298Z,10.25
2019-04-26T13:21:02.937Z,8.83
2019-04-26T13:23:31.110Z,8.50
2019-04-26T13:26:01.430Z,10.35
2019-04-26T13:28:29.848Z,10.32
2019-04-26T13:30:58.290Z,10.25
2019-04-26T13:33:27.398Z,9.13
2019-04-26T13:36:02.668Z,9.23
2019-04-26T13:38:26.336Z,11.75
2019-04-26T13:40:54.923Z,10.90
2019-04-26T13:43:27.083Z,13.25
2019-04-26T13:46:10.115Z,10.53
2019-04-26T13:48:43.829Z,12.53
2019-04-26T13:51:14.782Z,9.58
2019-04-26T13:53:47.089Z,10.80
2019-04-26T13:56:15.480Z,9.35
2019-04-26T13:58:45.566Z,11.90
2019-04-26T14:01:14.643Z,10.43
2019-04-26T14:03:44.583Z,12.00
2019-04-26T14:06:14.005Z,10.30
2019-04-26T14:08:42.547Z,11.43
2019-04-26T14:11:11.154Z,12.63
2019-04-26T14:13:39.908Z,11.43
2019-04-26T14:16:08.445Z,11.15
2019-04-26T14:18:40.572Z,10.45
2019-04-26T14:21:09.384Z,10.60
2019-04-26T14:23:56.854Z,9.88
2019-04-26T14:26:29.336Z,11.00
2019-04-26T14:28:59.564Z,10.93
2019-04-26T14:31:28.121Z,14.18
2019-04-26T14:33:56.566Z,11.70
2019-04-26T14:36:26.692Z,9.10
2019-04-26T14:39:05.645Z,10.85
2019-04-26T14:41:26.227Z,9.15
2019-04-26T14:43:56.698Z,11.43
2019-04-26T14:46:24.861Z,9.28
2019-04-26T14:49:02.154Z,9.05
2019-04-26T14:51:25.858Z,9.30
2019-04-26T14:53:54.295Z,9.33
2019-04-26T14:56:24.791Z,8.40
2019-04-26T14:58:52.851Z,9.03
2019-04-26T15:01:28.432Z,9.05
2019-04-26T15:04:13.091Z,7.92
2019-04-26T15:06:43.198Z,8.40
2019-04-26T15:09:19.540Z,9.25
2019-04-26T15:11:53.494Z,9.35
2019-04-26T15:14:19.356Z,8.38
2019-04-26T15:16:44.985Z,8.70
2019-04-26T15:19:14.674Z,7.78
2019-04-26T15:21:43.110Z,7.80
2019-04-26T15:24:12.839Z,9.18
2019-04-26T15:26:41.381Z,8.05
2019-04-26T15:29:10.073Z,8.95
2019-04-26T15:31:38.833Z,7.70
2019-04-26T15:34:07.538Z,8.88
2019-04-26T15:36:36.367Z,8.93
2019-04-26T15:39:08.784Z,10.55
2019-04-26T15:41:47.165Z,9.28
2019-04-26T15:44:34.988Z,9.18
2019-04-26T15:47:05.840Z,12.05
2019-04-26T15:49:38.948Z,8.80
2019-04-26T15:52:07.399Z,11.60
2019-04-26T15:54:35.822Z,11.88
2019-04-26T15:57:06.444Z,9.48
2019-04-26T15:59:34.849Z,8.68
2019-04-26T16:02:03.300Z,8.50
2019-04-26T16:04:32.411Z,9.08
2019-04-26T16:07:02.392Z,8.70
2019-04-26T16:09:32.602Z,10.28
2019-04-26T16:12:05.025Z,11.00
2019-04-26T16:14:36.555Z,9.93
2019-04-26T16:17:06.538Z,11.40
2019-04-26T16:19:34.021Z,8.90
2019-04-26T16:22:03.506Z,9.98
2019-04-26T16:24:34.104Z,9.40
2019-04-26T16:27:02.715Z,8.78
2019-04-26T16:29:33.267Z,10.60
2019-04-26T16:32:21.887Z,11.10
2019-04-26T16:34:52.839Z,9.55
2019-04-26T16:37:23.854Z,11.83
2019-04-26T16:39:58.273Z,9.98
2019-04-26T16:42:26.691Z,10.45
2019-04-26T16:44:55.362Z,10.48
2019-04-26T16:47:23.810Z,13.85
2019-04-26T16:49:54.493Z,11.28
2019-04-26T16:52:23.730Z,10.13
2019-04-26T16:54:53.056Z,8.70
2019-04-26T16:57:24.252Z,10.82
2019-04-26T16:59:57.538Z,9.88
2019-04-26T17:02:26.414Z,9.35
2019-04-26T17:04:53.401Z,9.75
2019-04-26T17:07:27.053Z,9.23
2019-04-26T17:09:58.139Z,10.40
2019-04-26T17:12:42.280Z,9.65
2019-04-26T17:15:11.092Z,8.75
2019-04-26T17:17:41.183Z,9.65
2019-04-26T17:20:12.006Z,12.68
2019-04-26T17:23:00.797Z,10.18
2019-04-26T17:25:46.205Z,9.00
2019-04-26T17:28:17.995Z,11.22
2019-04-26T17:30:45.875Z,10.13
2019-04-26T17:33:14.605Z,10.98
2019-04-26T17:35:43.066Z,12.85
2019-04-26T17:38:11.624Z,9.83
2019-04-26T17:40:41.111Z,9.75
2019-04-26T17:43:11.436Z,10.60
2019-04-26T17:45:43.905Z,10.85
2019-04-26T17:48:13.922Z,10.85
2019-04-26T17:50:42.428Z,11.45
2019-04-26T17:53:16.153Z,10.25
2019-04-26T17:55:41.556Z,24.80
2019-04-26T17:58:14.936Z,10.90
2019-04-26T18:00:46.123Z,9.65
2019-04-26T18:03:14.837Z,9.55
2019-04-26T18:05:56.700Z,9.33
2019-04-26T18:08:33.052Z,9.83
2019-04-26T18:10:46.626Z,11.80
2019-04-26T18:13:16.762Z,9.15
2019-04-26T18:15:48.521Z,8.40
2019-04-26T18:18:34.185Z,9.75
2019-04-26T18:21:22.930Z,11.33
2019-04-26T18:23:54.711Z,10.78
2019-04-26T18:26:24.573Z,7.40
2019-04-26T18:28:55.142Z,8.28
2019-04-26T18:31:28.948Z,8.78
2019-04-26T18:33:54.807Z,8.65
2019-04-26T18:36:27.636Z,9.50
2019-04-26T18:38:54.893Z,8.28
2019-04-26T18:41:28.846Z,8.68
2019-04-26T18:43:59.891Z,8.23
2019-04-26T18:46:39.682Z,8.55
2019-04-26T18:49:06.178Z,7.92
2019-04-26T18:51:34.967Z,12.07
2019-04-26T18:54:20.355Z,8.70
2019-04-26T18:56:50.778Z,7.70
2019-04-26T18:59:19.544Z,8.90
2019-04-26T19:01:48.316Z,8.43
2019-04-26T19:04:16.759Z,8.13
2019-04-26T19:06:45.799Z,7.17
2019-04-26T19:09:17.284Z,8.18
2019-04-26T19:11:48.465Z,7.35
2019-04-26T19:14:34.622Z,9.25
2019-04-26T19:17:22.058Z,10.05
2019-04-26T19:20:07.204Z,7.95
2019-04-26T19:22:41.557Z,8.20
2019-04-26T19:25:20.786Z,8.98
2019-04-26T19:27:48.099Z,8.00
2019-04-26T19:30:14.467Z,8.65
2019-04-26T19:35:12.762Z,8.68
2019-04-26T19:37:40.843Z,8.00
2019-04-26T19:40:10.660Z,9.48
2019-04-26T19:42:42.036Z,8.00
2019-04-26T19:45:19.016Z,7.35
2019-04-26T19:47:47.688Z,7.83
2019-04-26T19:50:21.876Z,8.88
2019-04-26T19:53:16.601Z,7.90
2019-04-26T19:55:47.443Z,7.58
2019-04-26T19:58:20.031Z,8.58
2019-04-26T20:00:46.870Z,8.98
2019-04-26T20:03:16.906Z,8.30
2019-04-26T20:05:52.951Z,8.28
2019-04-26T20:08:23.343Z,8.28
2019-04-26T20:10:52.112Z,8.08
2019-04-26T20:13:22.011Z,7.67
2019-04-26T20:15:51.428Z,8.33
2019-04-26T20:18:21.452Z,9.18
2019-04-26T20:20:52.016Z,8.70
2019-04-26T20:23:20.198Z,8.73
2019-04-26T20:25:48.977Z,9.78
2019-04-26T20:28:17.435Z,9.85
2019-04-26T20:31:07.678Z,9.40
2019-04-26T20:33:35.098Z,13.32
2019-04-26T20:36:04.834Z,9.23
2019-04-26T20:38:40.288Z,9.48
2019-04-26T20:41:03.896Z,11.20
2019-04-26T20:43:36.757Z,9.60
2019-04-26T20:46:14.100Z,11.08
2019-04-26T20:48:33.131Z,10.82
2019-04-26T20:51:02.226Z,10.82
2019-04-26T20:53:39.974Z,11.18
2019-04-26T20:56:03.783Z,10.60
2019-04-26T20:58:31.324Z,11.48
2019-04-26T21:01:01.367Z,12.37
2019-04-26T21:03:31.809Z,12.15
2019-04-26T21:06:02.578Z,12.28
2019-04-26T21:08:31.705Z,13.03
2019-04-26T21:11:01.691Z,11.78
2019-04-26T21:13:32.314Z,11.65
2019-04-26T21:16:03.580Z,11.10
2019-04-26T21:18:33.768Z,9.73
2019-04-26T21:21:05.819Z,10.13
2019-04-26T21:26:07.168Z,11.95
2019-04-26T21:28:38.131Z,12.05
2019-04-26T21:31:15.027Z,13.85
2019-04-26T21:34:07.816Z,11.68
2019-04-26T21:36:46.278Z,11.97
2019-04-26T21:39:22.212Z,13.00
2019-04-26T21:41:55.046Z,11.65
2019-04-26T21:46:56.166Z,14.13
2019-04-26T21:49:22.234Z,13.60
2019-04-26T21:51:53.906Z,13.70
2019-04-26T21:54:25.210Z,14.47
2019-04-26T21:56:53.854Z,13.70
2019-04-26T21:59:24.290Z,13.62
2019-04-26T22:01:58.819Z,19.07
2019-04-26T22:04:24.482Z,14.23
2019-04-26T22:06:53.453Z,18.55
2019-04-26T22:09:42.972Z,17.45
2019-04-26T22:12:18.118Z,16.27
2019-04-26T22:14:50.609Z,16.12
2019-04-26T22:19:58.097Z,20.92
2019-04-26T22:22:46.264Z,19.25
2019-04-26T22:25:16.595Z,20.02
2019-04-26T22:27:45.020Z,22.25
2019-04-26T22:30:15.134Z,19.65
2019-04-26T22:32:43.968Z,21.15
2019-04-26T22:35:13.390Z,18.32
2019-04-26T22:37:45.606Z,22.58
2019-04-26T22:40:33.584Z,20.92
2019-04-26T22:43:05.340Z,18.73
2019-04-26T22:45:46.805Z,19.73
2019-04-26T22:48:21.262Z,21.50
2019-04-26T22:50:46.063Z,20.70
2019-04-26T22:53:15.029Z,19.82
2019-04-26T22:55:43.933Z,20.45
2019-04-26T22:58:13.454Z,21.87
2019-04-26T23:00:43.588Z,23.65
2019-04-26T23:03:13.842Z,19.82
2019-04-26T23:05:43.280Z,21.70
2019-04-26T23:08:13.564Z,20.30
2019-04-26T23:10:49.678Z,23.40
2019-04-26T23:13:23.972Z,19.80
2019-04-26T23:16:11.109Z,20.75
2019-04-26T23:18:38.797Z,21.10
2019-04-26T23:21:11.960Z,21.82
2019-04-26T23:23:51.280Z,21.55
2019-04-26T23:26:19.963Z,23.18
2019-04-26T23:28:48.406Z,22.85
2019-04-26T23:31:16.996Z,22.05
2019-04-26T23:33:45.759Z,21.77
2019-04-26T23:36:18.408Z,23.07
2019-04-26T23:38:45.447Z,24.25
2019-04-26T23:41:14.376Z,22.85
2019-04-26T23:43:43.163Z,25.43
2019-04-26T23:46:14.308Z,22.82
2019-04-26T23:48:48.342Z,21.37
2019-04-26T23:51:12.910Z,21.97
2019-04-26T23:53:42.873Z,25.95
2019-04-26T23:56:16.230Z,25.88
2019-04-26T23:58:44.052Z,22.58
